sensor_id;sensor_type;location;lat;lon;timestamp;pressure;altitude;pressure_sealevel;temperature;humidity
76586;BME280;65251;51.022;13.736;2023-03-14T00:00:26;97332.75;;;11.46;82.86
76586;BME280;65251;51.022;13.736;2023-03-14T00:00:58;97332.75;;;11.46;82.61
76586;BME280;65251;51.022;13.736;2023-03-14T00:01:29;97330.59;;;11.43;82.87
76586;BME280;65251;51.022;13.736;2023-03-14T00:02:01;97319.13;;;11.43;83.04
76586;BME280;65251;51.022;13.736;2023-03-14T00:02:32;97319.13;;;11.43;82.81
76586;BME280;65251;51.022;13.736;2023-03-14T00:03:03;97317.75;;;11.40;83.10
76586;BME280;65251;51.022;13.736;2023-03-14T00:03:34;97317.50;;;11.42;82.78
76586;BME280;65251;51.022;13.736;2023-03-14T00:04:06;97312.16;;;11.42;82.97
76586;BME280;65251;51.022;13.736;2023-03-14T00:04:37;97304.44;;;11.40;83.09
76586;BME280;65251;51.022;13.736;2023-03-14T00:05:08;97311.63;;;11.39;83.13
76586;BME280;65251;51.022;13.736;2023-03-14T00:05:40;97307.63;;;11.37;83.56
76586;BME280;65251;51.022;13.736;2023-03-14T00:06:13;97305.47;;;11.34;83.51
76586;BME280;65251;51.022;13.736;2023-03-14T00:06:44;97311.06;;;11.32;83.54
76586;BME280;65251;51.022;13.736;2023-03-14T00:07:17;97305.72;;;11.32;83.38
76586;BME280;65251;51.022;13.736;2023-03-14T00:07:48;97308.41;;;11.32;83.11
76586;BME280;65251;51.022;13.736;2023-03-14T00:08:18;97301.22;;;11.33;83.55
76586;BME280;65251;51.022;13.736;2023-03-14T00:08:51;97308.91;;;11.29;83.30
76586;BME280;65251;51.022;13.736;2023-03-14T00:09:22;97294.25;;;11.32;83.46
76586;BME280;65251;51.022;13.736;2023-03-14T00:09:53;97293.47;;;11.31;83.44
76586;BME280;65251;51.022;13.736;2023-03-14T00:10:23;97292.91;;;11.29;83.51
76586;BME280;65251;51.022;13.736;2023-03-14T00:10:55;97298.50;;;11.28;84.22
76586;BME280;65251;51.022;13.736;2023-03-14T00:11:28;97297.16;;;11.25;84.05
76586;BME280;65251;51.022;13.736;2023-03-14T00:12:00;97295.28;;;11.26;83.77
76586;BME280;65251;51.022;13.736;2023-03-14T00:12:33;97295.25;;;11.21;84.61
76586;BME280;65251;51.022;13.736;2023-03-14T00:13:04;97291.78;;;11.15;84.57
76586;BME280;65251;51.022;13.736;2023-03-14T00:13:35;97286.16;;;11.12;84.96
76586;BME280;65251;51.022;13.736;2023-03-14T00:14:07;97277.34;;;11.11;84.66
76586;BME280;65251;51.022;13.736;2023-03-14T00:14:38;97273.03;;;11.05;84.60
76586;BME280;65251;51.022;13.736;2023-03-14T00:15:09;97273.03;;;11.05;84.83
76586;BME280;65251;51.022;13.736;2023-03-14T00:15:41;97265.81;;;11.00;85.12
76586;BME280;65251;51.022;13.736;2023-03-14T00:16:12;97262.06;;;10.96;85.62
76586;BME280;65251;51.022;13.736;2023-03-14T00:16:45;97266.59;;;10.96;85.05
76586;BME280;65251;51.022;13.736;2023-03-14T00:17:18;97267.66;;;10.95;85.27
76586;BME280;65251;51.022;13.736;2023-03-14T00:17:49;97264.44;;;10.93;85.63
76586;BME280;65251;51.022;13.736;2023-03-14T00:18:20;97255.63;;;10.92;85.86
76586;BME280;65251;51.022;13.736;2023-03-14T00:18:50;97256.16;;;10.89;85.50
76586;BME280;65251;51.022;13.736;2023-03-14T00:19:22;97252.38;;;10.85;86.23
76586;BME280;65251;51.022;13.736;2023-03-14T00:19:53;97260.88;;;10.82;86.08
76586;BME280;65251;51.022;13.736;2023-03-14T00:20:24;97259.03;;;10.83;86.01
76586;BME280;65251;51.022;13.736;2023-03-14T00:20:57;97263.81;;;10.81;86.00
76586;BME280;65251;51.022;13.736;2023-03-14T00:21:28;97256.88;;;10.80;86.02
76586;BME280;65251;51.022;13.736;2023-03-14T00:21:59;97262.72;;;10.77;86.43
76586;BME280;65251;51.022;13.736;2023-03-14T00:22:30;97255.25;;;10.74;86.78
76586;BME280;65251;51.022;13.736;2023-03-14T00:23:01;97259.75;;;10.73;86.25
76586;BME280;65251;51.022;13.736;2023-03-14T00:23:35;97265.59;;;10.70;86.08
76586;BME280;65251;51.022;13.736;2023-03-14T00:24:07;97266.66;;;10.69;86.71
76586;BME280;65251;51.022;13.736;2023-03-14T00:24:38;97259.72;;;10.68;86.09
76586;BME280;65251;51.022;13.736;2023-03-14T00:25:11;97260.22;;;10.65;86.46
76586;BME280;65251;51.022;13.736;2023-03-14T00:25:43;97257.56;;;10.65;86.87
76586;BME280;65251;51.022;13.736;2023-03-14T00:26:17;97259.41;;;10.64;86.64
76586;BME280;65251;51.022;13.736;2023-03-14T00:26:47;97257.81;;;10.63;86.31
76586;BME280;65251;51.022;13.736;2023-03-14T00:27:18;97252.75;;;10.62;86.81
76586;BME280;65251;51.022;13.736;2023-03-14T00:27:50;97246.06;;;10.59;86.50
76586;BME280;65251;51.022;13.736;2023-03-14T00:28:21;97258.03;;;10.57;87.03
76586;BME280;65251;51.022;13.736;2023-03-14T00:28:53;97253.78;;;10.56;87.00
76586;BME280;65251;51.022;13.736;2023-03-14T00:29:24;97247.66;;;10.55;86.90
76586;BME280;65251;51.022;13.736;2023-03-14T00:29:55;97253.53;;;10.57;86.55
76586;BME280;65251;51.022;13.736;2023-03-14T00:30:26;97255.88;;;10.54;86.65
76586;BME280;65251;51.022;13.736;2023-03-14T00:30:58;97248.44;;;10.56;86.83
76586;BME280;65251;51.022;13.736;2023-03-14T00:31:28;97252.16;;;10.55;86.80
76586;BME280;65251;51.022;13.736;2023-03-14T00:31:59;97241.22;;;10.51;86.50
76586;BME280;65251;51.022;13.736;2023-03-14T00:32:32;97247.09;;;10.53;87.20
76586;BME280;65251;51.022;13.736;2023-03-14T00:33:03;97242.56;;;10.54;86.47
76586;BME280;65251;51.022;13.736;2023-03-14T00:33:34;97247.91;;;10.54;87.27
76586;BME280;65251;51.022;13.736;2023-03-14T00:34:06;97256.69;;;10.54;87.33
76586;BME280;65251;51.022;13.736;2023-03-14T00:34:37;97257.75;;;10.53;86.34
76586;BME280;65251;51.022;13.736;2023-03-14T00:35:08;97256.13;;;10.52;87.06
76586;BME280;65251;51.022;13.736;2023-03-14T00:35:40;97262.81;;;10.55;86.80
76586;BME280;65251;51.022;13.736;2023-03-14T00:36:13;97263.06;;;10.53;87.29
76586;BME280;65251;51.022;13.736;2023-03-14T00:36:44;97254.03;;;10.54;87.08
76586;BME280;65251;51.022;13.736;2023-03-14T00:37:16;97265.72;;;10.53;86.60
76586;BME280;65251;51.022;13.736;2023-03-14T00:37:47;97256.13;;;10.52;87.44
76586;BME280;65251;51.022;13.736;2023-03-14T00:38:18;97261.72;;;10.51;87.08
76586;BME280;65251;51.022;13.736;2023-03-14T00:38:51;97262.25;;;10.53;86.15
76586;BME280;65251;51.022;13.736;2023-03-14T00:39:22;97263.31;;;10.52;86.63
76586;BME280;65251;51.022;13.736;2023-03-14T00:39:52;97265.19;;;10.51;86.94
76586;BME280;65251;51.022;13.736;2023-03-14T00:40:24;97264.13;;;10.52;86.64
76586;BME280;65251;51.022;13.736;2023-03-14T00:40:55;97275.03;;;10.51;86.72
76586;BME280;65251;51.022;13.736;2023-03-14T00:41:25;97271.56;;;10.50;86.90
76586;BME280;65251;51.022;13.736;2023-03-14T00:41:57;97280.09;;;10.52;86.78
76586;BME280;65251;51.022;13.736;2023-03-14T00:42:28;97276.88;;;10.50;86.80
76586;BME280;65251;51.022;13.736;2023-03-14T00:42:59;97283.00;;;10.51;87.09
76586;BME280;65251;51.022;13.736;2023-03-14T00:43:30;97283.81;;;10.51;86.76
76586;BME280;65251;51.022;13.736;2023-03-14T00:44:01;97276.88;;;10.50;86.17
76586;BME280;65251;51.022;13.736;2023-03-14T00:44:32;97274.47;;;10.49;87.32
76586;BME280;65251;51.022;13.736;2023-03-14T00:45:06;97278.50;;;10.51;86.42
76586;BME280;65251;51.022;13.736;2023-03-14T00:45:38;97275.28;;;10.49;86.58
76586;BME280;65251;51.022;13.736;2023-03-14T00:46:09;97270.75;;;10.50;86.94
76586;BME280;65251;51.022;13.736;2023-03-14T00:46:41;97270.25;;;10.53;86.15
76586;BME280;65251;51.022;13.736;2023-03-14T00:47:11;97279.28;;;10.52;85.98
76586;BME280;65251;51.022;13.736;2023-03-14T00:47:44;97279.03;;;10.53;86.70
76586;BME280;65251;51.022;13.736;2023-03-14T00:48:16;97271.59;;;10.55;86.59
76586;BME280;65251;51.022;13.736;2023-03-14T00:48:47;97273.78;;;10.58;86.68
76586;BME280;65251;51.022;13.736;2023-03-14T00:49:18;97275.34;;;10.59;86.49
76586;BME280;65251;51.022;13.736;2023-03-14T00:49:50;97272.69;;;10.59;86.21
76586;BME280;65251;51.022;13.736;2023-03-14T00:50:20;97280.41;;;10.61;85.49
76586;BME280;65251;51.022;13.736;2023-03-14T00:50:51;97274.59;;;10.64;86.04
76586;BME280;65251;51.022;13.736;2023-03-14T00:51:23;97282.34;;;10.65;85.33
76586;BME280;65251;51.022;13.736;2023-03-14T00:51:53;97281.28;;;10.66;85.55
76586;BME280;65251;51.022;13.736;2023-03-14T00:52:24;97283.44;;;10.69;85.36
76586;BME280;65251;51.022;13.736;2023-03-14T00:52:56;97280.78;;;10.69;85.84
76586;BME280;65251;51.022;13.736;2023-03-14T00:53:26;97276.00;;;10.72;85.07
76586;BME280;65251;51.022;13.736;2023-03-14T00:53:57;97273.09;;;10.73;85.39
76586;BME280;65251;51.022;13.736;2023-03-14T00:54:30;97280.28;;;10.73;84.44
76586;BME280;65251;51.022;13.736;2023-03-14T00:55:01;97275.25;;;10.76;84.86
76586;BME280;65251;51.022;13.736;2023-03-14T00:55:32;97277.09;;;10.76;84.99
76586;BME280;65251;51.022;13.736;2023-03-14T00:56:08;97262.69;;;10.72;84.85
76586;BME280;65251;51.022;13.736;2023-03-14T00:56:41;97273.94;;;10.79;84.44
76586;BME280;65251;51.022;13.736;2023-03-14T00:57:11;97273.41;;;10.82;84.92
76586;BME280;65251;51.022;13.736;2023-03-14T00:57:42;97275.25;;;10.81;83.70
76586;BME280;65251;51.022;13.736;2023-03-14T00:58:16;97271.53;;;10.82;83.90
76586;BME280;65251;51.022;13.736;2023-03-14T00:58:47;97277.41;;;10.84;84.65
76586;BME280;65251;51.022;13.736;2023-03-14T00:59:18;97274.50;;;10.86;84.25
76586;BME280;65251;51.022;13.736;2023-03-14T00:59:51;97278.53;;;10.88;83.83
76586;BME280;65251;51.022;13.736;2023-03-14T01:00:22;97280.69;;;10.91;84.17
76586;BME280;65251;51.022;13.736;2023-03-14T01:00:53;97279.63;;;10.92;84.09
76586;BME280;65251;51.022;13.736;2023-03-14T01:01:24;97283.09;;;10.93;83.78
76586;BME280;65251;51.022;13.736;2023-03-14T01:01:55;97280.72;;;10.96;83.21
76586;BME280;65251;51.022;13.736;2023-03-14T01:02:26;97284.16;;;10.92;83.52
76586;BME280;65251;51.022;13.736;2023-03-14T01:03:00;97281.22;;;10.93;83.58
76586;BME280;65251;51.022;13.736;2023-03-14T01:03:31;97279.06;;;10.90;83.94
76586;BME280;65251;51.022;13.736;2023-03-14T01:04:02;97271.03;;;10.85;83.54
76586;BME280;65251;51.022;13.736;2023-03-14T01:04:34;97292.38;;;10.90;83.66
76586;BME280;65251;51.022;13.736;2023-03-14T01:05:05;97286.00;;;10.91;83.29
76586;BME280;65251;51.022;13.736;2023-03-14T01:05:37;97280.13;;;10.89;83.60
76586;BME280;65251;51.022;13.736;2023-03-14T01:06:11;97289.69;;;10.85;83.47
76586;BME280;65251;51.022;13.736;2023-03-14T01:06:42;97283.81;;;10.83;83.48
76586;BME280;65251;51.022;13.736;2023-03-14T01:07:13;97281.63;;;10.80;83.41
76586;BME280;65251;51.022;13.736;2023-03-14T01:07:45;97276.88;;;10.82;84.26
76586;BME280;65251;51.022;13.736;2023-03-14T01:08:15;97279.28;;;10.84;84.30
76586;BME280;65251;51.022;13.736;2023-03-14T01:08:47;97285.41;;;10.84;83.59
76586;BME280;65251;51.022;13.736;2023-03-14T01:09:19;97282.50;;;10.86;83.82
76586;BME280;65251;51.022;13.736;2023-03-14T01:09:51;97283.84;;;10.88;82.78
76586;BME280;65251;51.022;13.736;2023-03-14T01:10:23;97283.84;;;10.88;83.20
76586;BME280;65251;51.022;13.736;2023-03-14T01:10:54;97289.97;;;10.89;82.63
76586;BME280;65251;51.022;13.736;2023-03-14T01:11:27;97282.78;;;10.89;83.05
76586;BME280;65251;51.022;13.736;2023-03-14T01:11:59;97285.44;;;10.89;83.53
76586;BME280;65251;51.022;13.736;2023-03-14T01:12:30;97293.44;;;10.89;83.06
76586;BME280;65251;51.022;13.736;2023-03-14T01:13:00;97289.97;;;10.89;83.13
76586;BME280;65251;51.022;13.736;2023-03-14T01:13:32;97291.59;;;10.90;83.07
76586;BME280;65251;51.022;13.736;2023-03-14T01:14:04;97289.19;;;10.88;83.07
76586;BME280;65251;51.022;13.736;2023-03-14T01:14:34;97292.91;;;10.87;82.90
76586;BME280;65251;51.022;13.736;2023-03-14T01:15:07;97289.97;;;10.89;83.21
76586;BME280;65251;51.022;13.736;2023-03-14T01:15:38;97297.97;;;10.89;82.22
76586;BME280;65251;51.022;13.736;2023-03-14T01:16:10;97292.91;;;10.87;83.35
76586;BME280;65251;51.022;13.736;2023-03-14T01:16:42;97295.06;;;10.90;82.39
76586;BME280;65251;51.022;13.736;2023-03-14T01:17:13;97290.53;;;10.91;81.92
76586;BME280;65251;51.022;13.736;2023-03-14T01:17:44;97288.72;;;10.96;81.33
76586;BME280;65251;51.022;13.736;2023-03-14T01:18:17;97286.84;;;10.97;81.21
76586;BME280;65251;51.022;13.736;2023-03-14T01:18:48;97273.78;;;11.00;80.94
76586;BME280;65251;51.022;13.736;2023-03-14T01:19:19;97283.41;;;11.01;80.88
76586;BME280;65251;51.022;13.736;2023-03-14T01:19:51;97272.47;;;11.03;81.15
76586;BME280;65251;51.022;13.736;2023-03-14T01:20:21;97265.53;;;11.02;81.15
76586;BME280;65251;51.022;13.736;2023-03-14T01:20:52;97266.91;;;11.04;80.97
76586;BME280;65251;51.022;13.736;2023-03-14T01:21:25;97262.13;;;11.07;80.66
76586;BME280;65251;51.022;13.736;2023-03-14T01:21:56;97251.75;;;11.10;80.65
76586;BME280;65251;51.022;13.736;2023-03-14T01:22:27;97263.22;;;11.11;80.26
76586;BME280;65251;51.022;13.736;2023-03-14T01:22:59;97249.38;;;11.14;80.13
76586;BME280;65251;51.022;13.736;2023-03-14T01:23:30;97256.56;;;11.13;80.61
76586;BME280;65251;51.022;13.736;2023-03-14T01:24:03;97249.38;;;11.14;79.84
76586;BME280;65251;51.022;13.736;2023-03-14T01:24:37;97255.81;;;11.18;80.60
76586;BME280;65251;51.022;13.736;2023-03-14T01:25:11;97253.13;;;11.18;80.39
76586;BME280;65251;51.022;13.736;2023-03-14T01:25:42;97239.81;;;11.18;79.92
76586;BME280;65251;51.022;13.736;2023-03-14T01:26:16;97255.53;;;11.19;80.32
76586;BME280;65251;51.022;13.736;2023-03-14T01:26:49;97251.78;;;11.20;80.27
76586;BME280;65251;51.022;13.736;2023-03-14T01:27:20;97254.19;;;11.22;80.38
76586;BME280;65251;51.022;13.736;2023-03-14T01:27:51;97260.59;;;11.21;80.32
76586;BME280;65251;51.022;13.736;2023-03-14T01:28:22;97260.34;;;11.22;79.55
76586;BME280;65251;51.022;13.736;2023-03-14T01:28:54;97254.19;;;11.22;79.69
76586;BME280;65251;51.022;13.736;2023-03-14T01:29:25;97259.03;;;11.25;79.86
76586;BME280;65251;51.022;13.736;2023-03-14T01:29:57;97251.03;;;11.25;80.09
76586;BME280;65251;51.022;13.736;2023-03-14T01:30:27;97253.44;;;11.26;79.72
76586;BME280;65251;51.022;13.736;2023-03-14T01:31:02;97247.03;;;11.27;79.62
76586;BME280;65251;51.022;13.736;2023-03-14T01:31:34;97246.28;;;11.32;79.10
76586;BME280;65251;51.022;13.736;2023-03-14T01:32:05;97249.75;;;11.32;79.17
76586;BME280;65251;51.022;13.736;2023-03-14T01:32:36;97255.13;;;11.37;79.20
76586;BME280;65251;51.022;13.736;2023-03-14T01:33:08;97253.75;;;11.35;78.46
76586;BME280;65251;51.022;13.736;2023-03-14T01:33:41;97259.09;;;11.40;78.21
76586;BME280;65251;51.022;13.736;2023-03-14T01:34:12;97255.38;;;11.36;78.81
76586;BME280;65251;51.022;13.736;2023-03-14T01:34:43;97257.50;;;11.39;78.38
76586;BME280;65251;51.022;13.736;2023-03-14T01:35:14;97260.16;;;11.39;78.86
76586;BME280;65251;51.022;13.736;2023-03-14T01:35:45;97257.50;;;11.39;78.70
76586;BME280;65251;51.022;13.736;2023-03-14T01:36:17;97259.66;;;11.42;78.06
76586;BME280;65251;51.022;13.736;2023-03-14T01:36:47;97263.38;;;11.41;78.68
76586;BME280;65251;51.022;13.736;2023-03-14T01:37:18;97264.97;;;11.42;78.32
76586;BME280;65251;51.022;13.736;2023-03-14T01:37:50;97272.47;;;11.45;78.11
76586;BME280;65251;51.022;13.736;2023-03-14T01:38:20;97269.53;;;11.47;78.12
76586;BME280;65251;51.022;13.736;2023-03-14T01:38:51;97269.03;;;11.50;77.59
76586;BME280;65251;51.022;13.736;2023-03-14T01:39:23;97272.25;;;11.52;77.81
76586;BME280;65251;51.022;13.736;2023-03-14T01:39:54;97269.06;;;11.55;77.92
76586;BME280;65251;51.022;13.736;2023-03-14T01:40:24;97267.75;;;11.57;77.65
76586;BME280;65251;51.022;13.736;2023-03-14T01:40:57;97266.69;;;11.58;77.86
76586;BME280;65251;51.022;13.736;2023-03-14T01:41:27;97269.34;;;11.63;77.16
76586;BME280;65251;51.022;13.736;2023-03-14T01:41:59;97271.47;;;11.61;77.39
76586;BME280;65251;51.022;13.736;2023-03-14T01:42:31;97265.31;;;11.61;77.37
76586;BME280;65251;51.022;13.736;2023-03-14T01:43:13;97275.75;;;11.62;76.92
76586;BME280;65251;51.022;13.736;2023-03-14T01:43:45;97270.41;;;11.62;76.63
76586;BME280;65251;51.022;13.736;2023-03-14T01:44:17;97281.38;;;11.66;76.92
76586;BME280;65251;51.022;13.736;2023-03-14T01:44:50;97276.81;;;11.66;76.95
76586;BME280;65251;51.022;13.736;2023-03-14T01:46:36;97278.72;;;11.71;76.16
76586;BME280;65251;51.022;13.736;2023-03-14T01:47:07;97270.19;;;11.69;76.32
76586;BME280;65251;51.022;13.736;2023-03-14T01:47:39;97273.66;;;11.69;76.20
76586;BME280;65251;51.022;13.736;2023-03-14T01:48:10;97269.91;;;11.70;76.67
76586;BME280;65251;51.022;13.736;2023-03-14T01:48:47;97263.53;;;11.71;76.35
76586;BME280;65251;51.022;13.736;2023-03-14T01:49:26;97261.66;;;11.72;76.26
76586;BME280;65251;51.022;13.736;2023-03-14T01:50:03;97262.19;;;11.74;75.47
76586;BME280;65251;51.022;13.736;2023-03-14T01:50:34;97257.97;;;11.78;75.91
76586;BME280;65251;51.022;13.736;2023-03-14T01:51:10;97260.09;;;11.76;75.80
76586;BME280;65251;51.022;13.736;2023-03-14T01:51:47;97257.97;;;11.78;75.64
76586;BME280;65251;51.022;13.736;2023-03-14T01:52:24;97258.47;;;11.75;75.36
76586;BME280;65251;51.022;13.736;2023-03-14T01:52:57;97257.66;;;11.74;75.48
76586;BME280;65251;51.022;13.736;2023-03-14T01:53:29;97248.31;;;11.72;76.34
76586;BME280;65251;51.022;13.736;2023-03-14T01:54:07;97260.59;;;11.73;75.70
76586;BME280;65251;51.022;13.736;2023-03-14T01:54:43;97254.72;;;11.71;75.25
76586;BME280;65251;51.022;13.736;2023-03-14T01:55:18;97251.25;;;11.70;75.36
76586;BME280;65251;51.022;13.736;2023-03-14T01:55:55;97257.38;;;11.71;75.59
76586;BME280;65251;51.022;13.736;2023-03-14T01:56:27;97256.31;;;11.72;75.63
76586;BME280;65251;51.022;13.736;2023-03-14T01:57:05;97254.19;;;11.74;75.61
76586;BME280;65251;51.022;13.736;2023-03-14T01:57:43;97259.25;;;11.70;75.63
76586;BME280;65251;51.022;13.736;2023-03-14T01:58:17;97256.56;;;11.70;75.30
76586;BME280;65251;51.022;13.736;2023-03-14T01:58:52;97255.78;;;11.70;75.28
76586;BME280;65251;51.022;13.736;2023-03-14T01:59:25;97248.88;;;11.74;74.72
76586;BME280;65251;51.022;13.736;2023-03-14T02:00:00;97253.41;;;11.73;75.24
76586;BME280;65251;51.022;13.736;2023-03-14T02:00:34;97249.91;;;11.68;74.74
76586;BME280;65251;51.022;13.736;2023-03-14T02:01:07;97258.25;;;11.77;74.60
76586;BME280;65251;51.022;13.736;2023-03-14T02:01:42;97253.72;;;11.77;74.44
76586;BME280;65251;51.022;13.736;2023-03-14T02:02:15;97255.81;;;11.75;74.48
76586;BME280;65251;51.022;13.736;2023-03-14T02:02:48;97253.41;;;11.73;75.28
76586;BME280;65251;51.022;13.736;2023-03-14T02:03:24;97255.53;;;11.71;75.32
76586;BME280;65251;51.022;13.736;2023-03-14T02:04:01;97259.78;;;11.72;74.42
76586;BME280;65251;51.022;13.736;2023-03-14T02:04:35;97257.44;;;11.76;74.45
76586;BME280;65251;51.022;13.736;2023-03-14T02:05:09;97252.66;;;11.78;74.38
76586;BME280;65251;51.022;13.736;2023-03-14T02:05:42;97256.38;;;11.77;74.05
76586;BME280;65251;51.022;13.736;2023-03-14T02:06:15;97254.19;;;11.74;74.02
76586;BME280;65251;51.022;13.736;2023-03-14T02:06:52;97257.97;;;11.78;73.92
76586;BME280;65251;51.022;13.736;2023-03-14T02:07:33;97250.78;;;11.79;73.51
76586;BME280;65251;51.022;13.736;2023-03-14T02:08:10;97250.47;;;11.75;74.10
76586;BME280;65251;51.022;13.736;2023-03-14T02:08:42;97247.03;;;11.80;73.72
76586;BME280;65251;51.022;13.736;2023-03-14T02:09:14;97248.63;;;11.81;73.67
76586;BME280;65251;51.022;13.736;2023-03-14T02:09:48;97240.63;;;11.81;73.53
76586;BME280;65251;51.022;13.736;2023-03-14T02:10:21;97248.63;;;11.81;73.54
76586;BME280;65251;51.022;13.736;2023-03-14T02:10:53;97246.25;;;11.84;73.19
76586;BME280;65251;51.022;13.736;2023-03-14T02:11:28;97253.44;;;11.84;73.38
76586;BME280;65251;51.022;13.736;2023-03-14T02:12:00;97244.34;;;11.80;73.13
76586;BME280;65251;51.022;13.736;2023-03-14T02:12:32;97247.81;;;11.80;72.96
76586;BME280;65251;51.022;13.736;2023-03-14T02:13:05;97250.50;;;11.80;73.25
76586;BME280;65251;51.022;13.736;2023-03-14T02:13:36;97248.38;;;11.82;72.95
76586;BME280;65251;51.022;13.736;2023-03-14T02:14:17;97253.19;;;11.85;72.73
76586;BME280;65251;51.022;13.736;2023-03-14T02:14:50;97248.91;;;11.84;73.31
76586;BME280;65251;51.022;13.736;2023-03-14T02:15:21;97243.56;;;11.84;72.79
76586;BME280;65251;51.022;13.736;2023-03-14T02:15:53;97240.09;;;11.84;73.33
76586;BME280;65251;51.022;13.736;2023-03-14T02:16:24;97240.38;;;11.82;72.29
76586;BME280;65251;51.022;13.736;2023-03-14T02:16:55;97244.13;;;11.86;72.48
76586;BME280;65251;51.022;13.736;2023-03-14T02:17:25;97243.31;;;11.86;72.87
76586;BME280;65251;51.022;13.736;2023-03-14T02:17:59;97248.09;;;11.84;72.47
76586;BME280;65251;51.022;13.736;2023-03-14T02:18:30;97240.91;;;11.84;72.88
76586;BME280;65251;51.022;13.736;2023-03-14T02:19:02;97240.38;;;11.82;72.89
76586;BME280;65251;51.022;13.736;2023-03-14T02:19:47;97246.25;;;11.84;72.50
76586;BME280;65251;51.022;13.736;2023-03-14T02:20:35;97242.22;;;11.82;72.09
76586;BME280;65251;51.022;13.736;2023-03-14T02:21:14;97235.56;;;11.84;72.25
76586;BME280;65251;51.022;13.736;2023-03-14T02:21:54;97235.56;;;11.84;72.50
76586;BME280;65251;51.022;13.736;2023-03-14T02:22:28;97227.28;;;11.81;72.15
76586;BME280;65251;51.022;13.736;2023-03-14T02:23:00;97226.22;;;11.82;71.68
76586;BME280;65251;51.022;13.736;2023-03-14T02:23:38;97236.09;;;11.86;71.46
76586;BME280;65251;51.022;13.736;2023-03-14T02:24:22;97236.91;;;11.87;71.66
76586;BME280;65251;51.022;13.736;2023-03-14T02:25:05;97235.03;;;11.87;72.21
76586;BME280;65251;51.022;13.736;2023-03-14T02:25:45;97238.78;;;11.86;71.62
76586;BME280;65251;51.022;13.736;2023-03-14T02:26:22;97240.09;;;11.84;72.14
76586;BME280;65251;51.022;13.736;2023-03-14T02:27:04;97234.47;;;11.80;72.42
76586;BME280;65251;51.022;13.736;2023-03-14T02:27:36;97235.28;;;11.81;72.44
76586;BME280;65251;51.022;13.736;2023-03-14T02:28:08;97236.88;;;11.82;71.97
76586;BME280;65251;51.022;13.736;2023-03-14T02:28:39;97239.56;;;11.82;71.94
76586;BME280;65251;51.022;13.736;2023-03-14T02:29:10;97234.78;;;11.79;71.90
76586;BME280;65251;51.022;13.736;2023-03-14T02:29:49;97234.47;;;11.80;71.07
76586;BME280;65251;51.022;13.736;2023-03-14T02:30:23;97229.16;;;11.80;71.71
76586;BME280;65251;51.022;13.736;2023-03-14T02:30:54;97236.63;;;11.83;71.21
76586;BME280;65251;51.022;13.736;2023-03-14T02:31:26;97227.03;;;11.82;71.16
76586;BME280;65251;51.022;13.736;2023-03-14T02:31:57;97225.41;;;11.81;71.54
76586;BME280;65251;51.022;13.736;2023-03-14T02:32:31;97223.81;;;11.80;71.60
76586;BME280;65251;51.022;13.736;2023-03-14T02:33:06;97215.81;;;11.80;71.09
76586;BME280;65251;51.022;13.736;2023-03-14T02:33:38;97227.03;;;11.77;71.03
76586;BME280;65251;51.022;13.736;2023-03-14T02:34:09;97223.81;;;11.80;70.52
76586;BME280;65251;51.022;13.736;2023-03-14T02:34:45;97225.41;;;11.81;70.52
76586;BME280;65251;51.022;13.736;2023-03-14T02:35:22;97223.28;;;11.78;71.26
76586;BME280;65251;51.022;13.736;2023-03-14T02:35:56;97228.63;;;11.78;71.29
76586;BME280;65251;51.022;13.736;2023-03-14T02:36:30;97223.28;;;11.78;71.34
76586;BME280;65251;51.022;13.736;2023-03-14T02:37:00;97218.75;;;11.79;70.50
76586;BME280;65251;51.022;13.736;2023-03-14T02:37:36;97211.28;;;11.81;70.95
76586;BME280;65251;51.022;13.736;2023-03-14T02:38:17;97211.81;;;11.83;69.98
76586;BME280;65251;51.022;13.736;2023-03-14T02:38:58;97215.03;;;11.85;70.16
76586;BME280;65251;51.022;13.736;2023-03-14T02:39:36;97221.41;;;11.84;70.21
76586;BME280;65251;51.022;13.736;2023-03-14T02:40:10;97221.97;;;11.86;70.34
76586;BME280;65251;51.022;13.736;2023-03-14T02:40:41;97210.50;;;11.85;69.83
76586;BME280;65251;51.022;13.736;2023-03-14T02:41:12;97220.38;;;11.85;69.81
76586;BME280;65251;51.022;13.736;2023-03-14T02:41:44;97215.56;;;11.87;70.36
76586;BME280;65251;51.022;13.736;2023-03-14T02:42:18;97232.91;;;11.84;70.34
76586;BME280;65251;51.022;13.736;2023-03-14T02:42:49;97230.75;;;11.81;70.15
76586;BME280;65251;51.022;13.736;2023-03-14T02:43:21;97229.69;;;11.82;70.55
76586;BME280;65251;51.022;13.736;2023-03-14T02:43:52;97231.03;;;11.85;69.33
76586;BME280;65251;51.022;13.736;2023-03-14T02:44:23;97229.16;;;11.80;69.64
76586;BME280;65251;51.022;13.736;2023-03-14T02:45:01;97226.47;;;11.80;70.02
76586;BME280;65251;51.022;13.736;2023-03-14T02:45:52;97234.47;;;11.80;70.37
76586;BME280;65251;51.022;13.736;2023-03-14T02:46:24;97230.22;;;11.79;69.89
76586;BME280;65251;51.022;13.736;2023-03-14T02:46:55;97234.47;;;11.80;69.93
76586;BME280;65251;51.022;13.736;2023-03-14T02:47:29;97228.88;;;11.82;70.18
76586;BME280;65251;51.022;13.736;2023-03-14T02:48:06;97229.94;;;11.81;70.11
76586;BME280;65251;51.022;13.736;2023-03-14T02:48:43;97234.22;;;11.82;69.70
76586;BME280;65251;51.022;13.736;2023-03-14T02:49:17;97237.69;;;11.82;69.54
76586;BME280;65251;51.022;13.736;2023-03-14T02:49:57;97233.16;;;11.83;69.74
76586;BME280;65251;51.022;13.736;2023-03-14T02:50:32;97235.56;;;11.84;70.16
76586;BME280;65251;51.022;13.736;2023-03-14T02:51:04;97245.44;;;11.84;70.12
76586;BME280;65251;51.022;13.736;2023-03-14T02:51:37;97233.16;;;11.83;69.24
76586;BME280;65251;51.022;13.736;2023-03-14T02:52:09;97242.00;;;11.88;69.19
76586;BME280;65251;51.022;13.736;2023-03-14T02:52:40;97236.91;;;11.87;68.97